Southfield, Louisiana
Current Conditions -  °F | °C
As of 7:58 PM on Monday 24 Nov 2014 (Local Time) from KBAD Reporting Station
Clear Clear  
Wind Chill: 47°   Ceiling: Unl
Heat Index: 47°   Visibility: 10mi
Dew Point: 33°   Wind: 0mph
Humidity: 58%   Direction: NA
Pressure: 30.1"   Gusts: NA
Location:  32.457°N, 93.7096°W
Report Text: KBAD 250158Z AUTO 00000KT 10SM CLR 08/00 A3010 RMK AO2 SLP196 T00830004
Loading
Personal Weather Stations






























Interactive Weather Map New forecast layout! Learn more

10-Day Weather Forecast

Advertisements
Track Severe Weather on mobile